createdAt,value
2016-12-26T00:00:06.522Z,95.56
2016-12-26T00:00:32.649Z,95.27
2016-12-26T00:00:58.761Z,95.46
2016-12-26T00:01:24.880Z,95.17
2016-12-26T00:01:50.996Z,95.56
2016-12-26T00:02:17.099Z,95.46
2016-12-26T00:02:43.230Z,95.27
2016-12-26T00:03:09.342Z,95.65
2016-12-26T00:03:35.450Z,95.27
2016-12-26T00:04:01.602Z,95.27
2016-12-26T00:04:27.720Z,94.89
2016-12-26T00:04:53.831Z,95.84
2016-12-26T00:05:19.954Z,95.84
2016-12-26T00:05:46.077Z,95.46
2016-12-26T00:06:12.181Z,95.46
2016-12-26T00:06:38.292Z,95.65
2016-12-26T00:07:04.406Z,95.65
2016-12-26T00:07:30.526Z,95.46
2016-12-26T00:07:56.647Z,95.46
2016-12-26T00:08:22.751Z,95.46
2016-12-26T00:08:48.868Z,95.56
2016-12-26T00:09:14.989Z,95.56
2016-12-26T00:09:41.089Z,95.75
2016-12-26T00:10:07.246Z,95.46
2016-12-26T00:10:33.367Z,95.27
2016-12-26T00:10:59.471Z,95.37
2016-12-26T00:11:25.583Z,95.37
2016-12-26T00:11:51.700Z,95.08
2016-12-26T00:12:17.820Z,94.89
2016-12-26T00:12:43.938Z,95.46
2016-12-26T00:13:10.043Z,95.37
2016-12-26T00:13:36.158Z,95.37
2016-12-26T00:14:02.285Z,95.37
2016-12-26T00:14:28.392Z,95.08
2016-12-26T00:14:54.504Z,95.56
2016-12-26T00:15:20.627Z,94.89
2016-12-26T00:15:46.735Z,94.89
2016-12-26T00:16:12.839Z,95.08
2016-12-26T00:16:38.966Z,95.56
2016-12-26T00:17:05.081Z,95.46
2016-12-26T00:17:31.187Z,95.75
2016-12-26T00:17:57.307Z,95.37
2016-12-26T00:18:23.420Z,95.37
2016-12-26T00:18:49.528Z,95.37
2016-12-26T00:19:15.646Z,95.08
2016-12-26T00:19:41.772Z,94.79
2016-12-26T00:20:07.876Z,94.79
2016-12-26T00:20:33.990Z,94.6
2016-12-26T00:21:00.110Z,94.51
2016-12-26T00:21:26.218Z,94.6
2016-12-26T00:21:52.332Z,95.08
2016-12-26T00:22:18.460Z,94.98
2016-12-26T00:22:44.570Z,94.79
2016-12-26T00:23:10.691Z,95.08
2016-12-26T00:23:36.795Z,94.89
2016-12-26T00:24:02.915Z,94.6
2016-12-26T00:24:29.036Z,95.17
2016-12-26T00:24:55.139Z,95.08
2016-12-26T00:25:21.247Z,94.79
2016-12-26T00:25:47.373Z,94.89
2016-12-26T00:26:13.485Z,94.98
2016-12-26T00:26:39.623Z,95.08
2016-12-26T00:27:05.744Z,94.79
2016-12-26T00:27:31.858Z,94.89
2016-12-26T00:27:57.975Z,94.79
2016-12-26T00:28:24.085Z,94.89
2016-12-26T00:28:50.196Z,94.79
2016-12-26T00:29:16.314Z,94.98
2016-12-26T00:29:42.433Z,95.17
2016-12-26T00:30:08.533Z,94.6
2016-12-26T00:30:34.668Z,94.6
2016-12-26T00:31:00.776Z,94.12
2016-12-26T00:31:26.887Z,94.51
2016-12-26T00:31:53.006Z,94.79
2016-12-26T00:32:19.125Z,94.7
2016-12-26T00:32:45.235Z,94.6
2016-12-26T00:33:11.353Z,94.41
2016-12-26T00:33:37.475Z,94.7
2016-12-26T00:34:03.581Z,94.6
2016-12-26T00:34:29.696Z,94.6
2016-12-26T00:34:55.805Z,94.7
2016-12-26T00:35:21.925Z,94.79
2016-12-26T00:35:48.048Z,94.41
2016-12-26T00:36:14.149Z,94.79
2016-12-26T00:36:40.269Z,94.79
2016-12-26T00:37:06.396Z,94.22
2016-12-26T00:37:32.501Z,94.51
2016-12-26T00:37:58.614Z,94.22
2016-12-26T00:38:24.738Z,94.51
2016-12-26T00:38:50.850Z,94.6
2016-12-26T00:39:16.966Z,94.32
2016-12-26T00:39:43.093Z,94.32
2016-12-26T00:40:09.204Z,94.51
2016-12-26T00:40:35.341Z,94.51
2016-12-26T00:41:01.466Z,93.74
2016-12-26T00:41:27.581Z,94.22
2016-12-26T00:41:53.684Z,94.22
2016-12-26T00:42:19.811Z,94.22
2016-12-26T00:42:45.930Z,93.74
2016-12-26T00:43:12.030Z,93.74
2016-12-26T00:43:38.151Z,93.84
2016-12-26T00:44:04.273Z,94.03
2016-12-26T00:44:30.376Z,93.65
2016-12-26T00:44:56.490Z,93.84
2016-12-26T00:45:22.603Z,93.65
2016-12-26T00:45:48.727Z,93.93
2016-12-26T00:46:14.839Z,93.84
2016-12-26T00:46:40.953Z,94.22
2016-12-26T00:47:07.071Z,94.41
2016-12-26T00:47:33.197Z,94.32
2016-12-26T00:47:59.295Z,94.51
2016-12-26T00:48:25.415Z,94.51
2016-12-26T00:48:51.535Z,94.51
2016-12-26T00:49:17.642Z,94.79
2016-12-26T00:49:43.756Z,94.79
2016-12-26T00:50:09.881Z,94.41
2016-12-26T00:50:35.995Z,94.79
2016-12-26T00:51:02.115Z,94.98
2016-12-26T00:51:28.223Z,94.7
2016-12-26T00:51:54.339Z,94.41
2016-12-26T00:52:20.469Z,94.6
2016-12-26T00:52:46.573Z,94.51
2016-12-26T00:53:12.685Z,94.79
2016-12-26T00:53:38.812Z,94.98
2016-12-26T00:54:04.922Z,94.98
2016-12-26T00:54:31.028Z,94.89
2016-12-26T00:54:57.163Z,95.17
2016-12-26T00:55:23.279Z,95.08
2016-12-26T00:55:49.380Z,94.89
2016-12-26T00:56:15.502Z,94.79
2016-12-26T00:56:41.612Z,94.22
2016-12-26T00:57:07.729Z,94.41
2016-12-26T00:57:33.842Z,95.08
2016-12-26T00:57:59.944Z,94.41
2016-12-26T00:58:26.077Z,94.7
2016-12-26T00:58:52.190Z,94.32
2016-12-26T00:59:18.290Z,94.41
2016-12-26T00:59:44.412Z,94.6
2016-12-26T01:00:10.525Z,94.6
2016-12-26T01:00:36.633Z,94.79
2016-12-26T01:01:02.754Z,94.6
2016-12-26T01:01:28.879Z,94.51
2016-12-26T01:01:54.994Z,94.79
2016-12-26T01:02:21.107Z,94.7
2016-12-26T01:02:47.219Z,94.51
2016-12-26T01:03:13.339Z,94.79
2016-12-26T01:03:39.457Z,94.7
2016-12-26T01:04:05.562Z,94.41
2016-12-26T01:04:31.676Z,95.08
2016-12-26T01:04:57.809Z,95.17
2016-12-26T01:05:23.907Z,95.08
2016-12-26T01:05:50.025Z,94.51
2016-12-26T01:06:16.152Z,94.51
2016-12-26T01:06:42.260Z,94.6
2016-12-26T01:07:08.374Z,94.7
2016-12-26T01:07:34.485Z,94.6
2016-12-26T01:08:00.600Z,94.51
2016-12-26T01:08:26.723Z,94.6
2016-12-26T01:08:52.822Z,94.79
2016-12-26T01:09:18.939Z,94.41
2016-12-26T01:09:45.061Z,94.89
2016-12-26T01:10:11.168Z,94.41
2016-12-26T01:10:37.304Z,94.7
2016-12-26T01:11:03.431Z,94.51
2016-12-26T01:11:29.542Z,94.7
2016-12-26T01:11:55.650Z,94.32
2016-12-26T01:12:21.775Z,94.41
2016-12-26T01:12:47.885Z,94.79
2016-12-26T01:13:14.013Z,94.79
2016-12-26T01:13:40.119Z,94.79
2016-12-26T01:14:06.232Z,94.98
2016-12-26T01:14:32.359Z,95.27
2016-12-26T01:14:58.471Z,94.89
2016-12-26T01:15:24.575Z,94.79
2016-12-26T01:15:50.703Z,94.79
2016-12-26T01:16:16.815Z,94.7
2016-12-26T01:16:42.919Z,94.89
2016-12-26T01:17:09.047Z,94.89
2016-12-26T01:17:35.190Z,95.08
2016-12-26T01:18:01.301Z,94.7
2016-12-26T01:18:27.415Z,95.08
2016-12-26T01:18:53.520Z,95.27
2016-12-26T01:19:19.646Z,95.17
2016-12-26T01:19:45.758Z,95.46
2016-12-26T01:20:11.867Z,95.65
2016-12-26T01:20:37.990Z,95.46
2016-12-26T01:21:04.105Z,95.46
2016-12-26T01:21:30.212Z,95.37
2016-12-26T01:21:56.334Z,95.37
2016-12-26T01:22:22.462Z,95.37
2016-12-26T01:22:48.566Z,95.08
2016-12-26T01:23:14.681Z,95.37
2016-12-26T01:23:40.801Z,95.37
2016-12-26T01:24:06.910Z,95.46
2016-12-26T01:24:33.023Z,95.17
2016-12-26T01:24:59.144Z,95.56
2016-12-26T01:25:25.257Z,95.65
2016-12-26T01:25:51.366Z,95.65
2016-12-26T01:26:17.487Z,95.17
2016-12-26T01:26:43.601Z,95.46
2016-12-26T01:27:09.706Z,95.27
2016-12-26T01:27:35.831Z,95.46
2016-12-26T01:28:01.951Z,95.08
2016-12-26T01:28:28.058Z,95.37
2016-12-26T01:28:54.179Z,94.98
2016-12-26T01:29:20.296Z,94.89
2016-12-26T01:29:46.407Z,94.79
2016-12-26T01:30:12.517Z,94.6
2016-12-26T01:30:38.622Z,94.79
2016-12-26T01:31:04.739Z,95.17
2016-12-26T01:31:30.856Z,95.27
2016-12-26T01:31:56.967Z,95.17
2016-12-26T01:32:23.085Z,95.08
2016-12-26T01:32:49.216Z,95.17
2016-12-26T01:33:15.319Z,94.7
2016-12-26T01:33:41.430Z,94.89
2016-12-26T01:34:07.568Z,94.98
2016-12-26T01:34:33.693Z,94.6
2016-12-26T01:34:59.812Z,94.51
2016-12-26T01:35:25.924Z,94.41
2016-12-26T01:35:52.041Z,94.6
2016-12-26T01:36:18.166Z,94.98
2016-12-26T01:36:44.266Z,95.08
2016-12-26T01:37:10.382Z,95.27
2016-12-26T01:37:36.501Z,94.79
2016-12-26T01:38:02.613Z,94.89
2016-12-26T01:38:28.724Z,95.17
2016-12-26T01:38:54.850Z,94.79
2016-12-26T01:39:20.956Z,95.08
2016-12-26T01:39:47.067Z,94.7
2016-12-26T01:40:13.187Z,94.41
2016-12-26T01:40:39.304Z,94.7
2016-12-26T01:41:05.457Z,94.7
2016-12-26T01:41:31.566Z,94.79
2016-12-26T01:41:57.677Z,94.7
2016-12-26T01:42:23.798Z,94.41
2016-12-26T01:42:49.909Z,94.79
2016-12-26T01:43:16.019Z,94.79
2016-12-26T01:43:42.144Z,94.79
2016-12-26T01:44:08.255Z,94.41
2016-12-26T01:44:34.360Z,94.6
2016-12-26T01:45:00.485Z,94.32
2016-12-26T01:45:26.599Z,94.32
2016-12-26T01:45:52.711Z,94.89
2016-12-26T01:46:18.831Z,94.89
2016-12-26T01:46:44.932Z,94.98
2016-12-26T01:47:11.062Z,94.6
2016-12-26T01:47:37.180Z,94.79
2016-12-26T01:48:03.284Z,94.79
2016-12-26T01:48:29.408Z,94.79
2016-12-26T01:48:55.519Z,94.79
2016-12-26T01:49:21.629Z,94.79
2016-12-26T01:49:47.752Z,94.41
2016-12-26T01:50:13.875Z,94.51
2016-12-26T01:50:39.973Z,94.51
2016-12-26T01:51:06.087Z,94.7
2016-12-26T01:51:32.206Z,94.89
2016-12-26T01:51:58.313Z,94.89
2016-12-26T01:52:24.433Z,94.79
2016-12-26T01:52:50.538Z,94.7
2016-12-26T01:53:16.656Z,94.7
2016-12-26T01:53:42.777Z,94.89
2016-12-26T01:54:08.885Z,94.79
2016-12-26T01:54:35.002Z,94.6
2016-12-26T01:55:01.121Z,94.6
2016-12-26T01:55:27.230Z,94.51
2016-12-26T01:55:53.345Z,94.6
2016-12-26T01:56:19.462Z,94.6
2016-12-26T01:56:45.576Z,94.6
2016-12-26T01:57:11.684Z,94.7
2016-12-26T01:57:37.803Z,94.22
2016-12-26T01:58:03.921Z,94.79
2016-12-26T01:58:30.046Z,94.89
2016-12-26T01:58:56.151Z,95.08
2016-12-26T01:59:22.268Z,94.51
2016-12-26T01:59:48.417Z,94.6
2016-12-26T02:00:14.530Z,94.79
2016-12-26T02:00:40.636Z,94.7
2016-12-26T02:01:06.756Z,94.41
2016-12-26T02:01:32.871Z,94.79
2016-12-26T02:01:58.980Z,94.32
2016-12-26T02:02:25.102Z,94.22
2016-12-26T02:02:51.220Z,94.51
2016-12-26T02:03:17.341Z,94.7
2016-12-26T02:03:43.444Z,94.6
2016-12-26T02:04:09.548Z,93.84
2016-12-26T02:04:35.676Z,94.03
2016-12-26T02:05:01.789Z,93.93
2016-12-26T02:05:27.904Z,94.51
2016-12-26T02:05:54.022Z,94.6
2016-12-26T02:06:20.135Z,94.51
2016-12-26T02:06:46.245Z,94.41
2016-12-26T02:07:12.366Z,94.6
2016-12-26T02:07:38.487Z,94.51
2016-12-26T02:08:04.595Z,94.51
2016-12-26T02:08:30.715Z,94.41
2016-12-26T02:08:56.837Z,94.7
2016-12-26T02:09:22.943Z,94.03
2016-12-26T02:09:49.049Z,94.22
2016-12-26T02:10:15.178Z,94.51
2016-12-26T02:10:41.287Z,94.79
2016-12-26T02:11:07.397Z,94.32
2016-12-26T02:11:33.519Z,94.32
2016-12-26T02:11:59.637Z,95.08
2016-12-26T02:12:25.738Z,95.08
2016-12-26T02:12:51.864Z,94.98
2016-12-26T02:13:17.983Z,94.89
2016-12-26T02:13:44.086Z,94.98
2016-12-26T02:14:10.212Z,95.08
2016-12-26T02:14:36.316Z,94.6
2016-12-26T02:15:02.448Z,94.79
2016-12-26T02:15:28.562Z,94.79
2016-12-26T02:15:54.668Z,94.79
2016-12-26T02:16:20.791Z,94.79
2016-12-26T02:16:46.906Z,94.51
2016-12-26T02:17:13.015Z,94.89
2016-12-26T02:17:39.129Z,94.6
2016-12-26T02:18:05.251Z,94.41
2016-12-26T02:18:31.355Z,94.41
2016-12-26T02:18:57.469Z,94.7
2016-12-26T02:19:23.595Z,94.41
2016-12-26T02:19:49.700Z,94.79
2016-12-26T02:20:15.821Z,94.22
2016-12-26T02:20:41.921Z,94.6
2016-12-26T02:21:08.044Z,94.51
2016-12-26T02:21:34.165Z,94.7
2016-12-26T02:22:00.273Z,94.51
2016-12-26T02:22:26.388Z,94.7
2016-12-26T02:22:52.713Z,94.32
2016-12-26T02:23:18.824Z,94.51
2016-12-26T02:23:44.940Z,94.6
2016-12-26T02:24:11.072Z,94.51
2016-12-26T02:24:37.181Z,94.7
2016-12-26T02:25:03.286Z,94.7
2016-12-26T02:25:29.404Z,94.51
2016-12-26T02:25:55.524Z,94.51
2016-12-26T02:26:21.654Z,94.51
2016-12-26T02:26:47.752Z,94.6
2016-12-26T02:27:13.867Z,94.22
2016-12-26T02:27:39.984Z,94.98
2016-12-26T02:28:06.100Z,94.89
2016-12-26T02:28:32.200Z,94.51
2016-12-26T02:28:58.324Z,94.6
2016-12-26T02:29:24.435Z,94.22
2016-12-26T02:29:50.544Z,94.79
2016-12-26T02:30:16.668Z,94.7
2016-12-26T02:30:42.785Z,94.7
2016-12-26T02:31:08.902Z,94.79
2016-12-26T02:31:35.012Z,94.7
2016-12-26T02:32:01.121Z,94.7
2016-12-26T02:32:27.245Z,93.74
2016-12-26T02:32:53.364Z,94.03
2016-12-26T02:33:19.470Z,94.22
2016-12-26T02:33:45.590Z,94.12
2016-12-26T02:34:11.699Z,93.55
2016-12-26T02:34:37.810Z,93.74
2016-12-26T02:35:03.933Z,93.55
2016-12-26T02:35:30.058Z,93.93
2016-12-26T02:35:56.162Z,94.03
2016-12-26T02:36:22.272Z,94.22
2016-12-26T02:36:48.383Z,94.03
2016-12-26T02:37:14.500Z,94.22
2016-12-26T02:37:40.620Z,93.36
2016-12-26T02:38:06.729Z,93.55
2016-12-26T02:38:32.845Z,93.55
2016-12-26T02:38:58.976Z,93.55
2016-12-26T02:39:25.079Z,93.93
2016-12-26T02:39:51.228Z,93.74
2016-12-26T02:40:17.353Z,93.36
2016-12-26T02:40:43.485Z,93.74
2016-12-26T02:41:09.598Z,93.74
2016-12-26T02:41:35.723Z,94.03
2016-12-26T02:42:01.833Z,93.84
2016-12-26T02:42:27.957Z,93.74
2016-12-26T02:42:54.061Z,93.84
2016-12-26T02:43:20.183Z,94.22
2016-12-26T02:43:46.309Z,94.03
2016-12-26T02:44:12.415Z,94.22
2016-12-26T02:44:38.526Z,94.03
2016-12-26T02:45:04.649Z,93.93
2016-12-26T02:45:30.760Z,94.22
2016-12-26T02:45:56.874Z,93.65
2016-12-26T02:46:22.998Z,93.65
2016-12-26T02:46:49.110Z,94.22
2016-12-26T02:47:15.217Z,94.32
2016-12-26T02:47:41.341Z,94.12
2016-12-26T02:48:07.447Z,94.03
2016-12-26T02:48:33.574Z,94.22
2016-12-26T02:48:59.685Z,94.12
2016-12-26T02:49:25.785Z,94.03
2016-12-26T02:49:51.917Z,94.12
2016-12-26T02:50:18.038Z,94.03
2016-12-26T02:50:44.150Z,94.41
2016-12-26T02:51:10.268Z,94.03
2016-12-26T02:51:36.382Z,94.03
2016-12-26T02:52:02.487Z,94.22
2016-12-26T02:52:28.612Z,93.65
2016-12-26T02:52:54.738Z,94.12
2016-12-26T02:53:20.839Z,94.03
2016-12-26T02:53:46.957Z,93.65
2016-12-26T02:54:13.078Z,93.84
2016-12-26T02:54:39.186Z,94.03
2016-12-26T02:55:05.298Z,94.22
2016-12-26T02:55:31.424Z,94.03
2016-12-26T02:55:57.533Z,93.93
2016-12-26T02:56:23.645Z,94.22
2016-12-26T02:56:49.769Z,93.84
2016-12-26T02:57:15.879Z,93.93
2016-12-26T02:57:41.987Z,94.22
2016-12-26T02:58:08.112Z,94.51
2016-12-26T02:58:34.230Z,94.32
2016-12-26T02:59:00.343Z,94.79
2016-12-26T02:59:26.450Z,94.51
2016-12-26T02:59:52.552Z,94.6
2016-12-26T03:00:18.677Z,94.32
2016-12-26T03:00:44.790Z,94.7
2016-12-26T03:01:10.898Z,94.51
2016-12-26T03:01:37.022Z,94.79
2016-12-26T03:02:03.137Z,94.6
2016-12-26T03:02:29.246Z,94.98
2016-12-26T03:02:55.367Z,94.98
2016-12-26T03:03:21.492Z,94.41
2016-12-26T03:03:47.589Z,94.6
2016-12-26T03:04:13.709Z,94.7
2016-12-26T03:04:39.818Z,94.22
2016-12-26T03:05:05.940Z,94.51
2016-12-26T03:05:32.055Z,94.89
2016-12-26T03:05:58.165Z,94.7
2016-12-26T03:06:24.283Z,94.51
2016-12-26T03:06:50.405Z,94.51
2016-12-26T03:07:16.505Z,94.41
2016-12-26T03:07:42.622Z,94.51
2016-12-26T03:08:08.745Z,94.7
2016-12-26T03:08:34.852Z,94.7
2016-12-26T03:09:00.965Z,94.79
2016-12-26T03:09:27.093Z,94.7
2016-12-26T03:09:53.200Z,94.32
2016-12-26T03:10:19.323Z,94.79
2016-12-26T03:10:45.431Z,94.6
2016-12-26T03:11:11.547Z,94.22
2016-12-26T03:11:37.669Z,94.98
2016-12-26T03:12:03.776Z,95.27
2016-12-26T03:12:29.885Z,95.65
2016-12-26T03:12:56.003Z,95.56
2016-12-26T03:13:22.119Z,95.17
2016-12-26T03:13:48.230Z,95.37
2016-12-26T03:14:14.353Z,95.46
2016-12-26T03:14:40.463Z,95.46
2016-12-26T03:15:06.564Z,95.56
2016-12-26T03:15:32.692Z,95.56
2016-12-26T03:15:58.798Z,95.46
2016-12-26T03:16:24.923Z,95.46
2016-12-26T03:16:51.034Z,95.46
2016-12-26T03:17:17.141Z,95.37
2016-12-26T03:17:43.264Z,95.27
2016-12-26T03:18:09.376Z,95.27
2016-12-26T03:18:35.487Z,95.37
2016-12-26T03:19:01.608Z,95.27
2016-12-26T03:19:27.722Z,95.37
2016-12-26T03:19:53.831Z,95.27
2016-12-26T03:20:19.952Z,95.27
2016-12-26T03:20:46.073Z,95.27
2016-12-26T03:21:12.209Z,94.79
2016-12-26T03:21:38.326Z,94.89
2016-12-26T03:22:04.428Z,94.79
2016-12-26T03:22:30.553Z,95.08
2016-12-26T03:22:56.662Z,95.08
2016-12-26T03:23:22.774Z,94.79
2016-12-26T03:23:48.898Z,94.89
2016-12-26T03:24:15.016Z,94.6
2016-12-26T03:24:41.120Z,95.08
2016-12-26T03:25:07.231Z,95.46
2016-12-26T03:25:33.353Z,95.37
2016-12-26T03:25:59.458Z,95.56
2016-12-26T03:26:25.572Z,95.37
2016-12-26T03:26:51.677Z,95.27
2016-12-26T03:27:17.801Z,95.17
2016-12-26T03:27:43.924Z,95.17
2016-12-26T03:28:10.025Z,94.79
2016-12-26T03:28:36.139Z,95.08
2016-12-26T03:29:02.258Z,94.98
2016-12-26T03:29:28.369Z,95.27
2016-12-26T03:29:54.488Z,95.37
2016-12-26T03:30:20.616Z,95.37
2016-12-26T03:30:46.726Z,95.37
2016-12-26T03:31:12.838Z,95.37
2016-12-26T03:31:38.965Z,95.27
2016-12-26T03:32:05.079Z,95.37
2016-12-26T03:32:31.199Z,95.27
2016-12-26T03:32:57.302Z,95.56
2016-12-26T03:33:23.414Z,94.89
2016-12-26T03:33:49.533Z,94.79
2016-12-26T03:34:15.644Z,94.89
2016-12-26T03:34:41.756Z,94.79
2016-12-26T03:35:07.876Z,94.89
2016-12-26T03:35:33.985Z,95.08
2016-12-26T03:36:00.095Z,95.17
2016-12-26T03:36:26.217Z,95.17
2016-12-26T03:36:52.330Z,95.08
2016-12-26T03:37:18.433Z,94.98
2016-12-26T03:37:44.556Z,94.79
2016-12-26T03:38:10.681Z,94.89
2016-12-26T03:38:36.778Z,94.89
2016-12-26T03:39:02.892Z,94.98
2016-12-26T03:39:29.017Z,95.08
2016-12-26T03:39:55.125Z,94.79
2016-12-26T03:40:21.241Z,94.79
2016-12-26T03:40:47.362Z,94.6
2016-12-26T03:41:13.470Z,95.17
2016-12-26T03:41:39.574Z,94.89
2016-12-26T03:42:05.697Z,94.89
2016-12-26T03:42:31.813Z,94.89
2016-12-26T03:42:57.923Z,94.79
2016-12-26T03:43:24.039Z,94.98
2016-12-26T03:43:50.146Z,94.51
2016-12-26T03:44:16.275Z,94.22
2016-12-26T03:44:42.990Z,94.22
2016-12-26T03:45:09.098Z,94.98
2016-12-26T03:45:35.222Z,94.79
2016-12-26T03:46:01.328Z,95.17
2016-12-26T03:46:27.436Z,95.17
2016-12-26T03:46:53.566Z,94.79
2016-12-26T03:47:19.685Z,95.17
2016-12-26T03:47:45.788Z,95.27
2016-12-26T03:48:11.908Z,95.17
2016-12-26T03:48:38.030Z,95.75
2016-12-26T03:49:04.144Z,95.37
2016-12-26T03:49:30.282Z,95.46
2016-12-26T03:49:56.383Z,95.37
2016-12-26T03:50:22.510Z,95.17
2016-12-26T03:50:48.624Z,95.46
2016-12-26T03:51:14.736Z,95.46
2016-12-26T03:51:40.850Z,95.94
2016-12-26T03:52:06.976Z,96.22
2016-12-26T03:52:33.079Z,96.51
2016-12-26T03:52:59.195Z,96.03
2016-12-26T03:53:25.318Z,96.32
2016-12-26T03:53:51.432Z,96.51
2016-12-26T03:54:17.547Z,96.41
2016-12-26T03:54:43.658Z,96.32
2016-12-26T03:55:09.777Z,96.51
2016-12-26T03:55:35.907Z,96.32
2016-12-26T03:56:02.009Z,96.32
2016-12-26T03:56:28.124Z,96.89
2016-12-26T03:56:54.244Z,96.7
2016-12-26T03:57:20.387Z,96.61
2016-12-26T03:57:46.505Z,96.22
2016-12-26T03:58:12.631Z,96.13
2016-12-26T03:58:38.788Z,96.13
2016-12-26T03:59:04.898Z,96.03
2016-12-26T03:59:31.018Z,96.13
2016-12-26T03:59:57.129Z,95.75
2016-12-26T04:00:23.247Z,95.94
2016-12-26T04:00:49.353Z,96.03
2016-12-26T04:01:15.464Z,95.94
2016-12-26T04:01:41.586Z,95.94
2016-12-26T04:02:07.694Z,95.75
2016-12-26T04:02:33.797Z,95.75
2016-12-26T04:02:59.924Z,96.22
2016-12-26T04:03:26.036Z,96.61
2016-12-26T04:03:52.146Z,96.89
2016-12-26T04:04:18.267Z,96.8
2016-12-26T04:04:44.385Z,96.61
2016-12-26T04:05:10.490Z,96.51
2016-12-26T04:05:36.610Z,96.7
2016-12-26T04:06:02.719Z,96.89
2016-12-26T04:06:28.841Z,96.03
2016-12-26T04:06:54.950Z,96.32
2016-12-26T04:07:21.056Z,95.94
2016-12-26T04:07:47.182Z,95.75
2016-12-26T04:08:13.299Z,96.03
2016-12-26T04:08:39.400Z,95.56
2016-12-26T04:09:05.519Z,95.75
2016-12-26T04:09:31.637Z,95.75
2016-12-26T04:09:57.746Z,95.94
2016-12-26T04:10:23.858Z,96.03
2016-12-26T04:10:49.985Z,95.84
2016-12-26T04:11:16.087Z,96.03
2016-12-26T04:11:42.209Z,95.84
2016-12-26T04:12:08.316Z,96.13
2016-12-26T04:12:34.437Z,95.94
2016-12-26T04:13:00.563Z,96.61
2016-12-26T04:13:26.670Z,96.7
2016-12-26T04:13:52.790Z,96.61
2016-12-26T04:14:18.906Z,96.51
2016-12-26T04:14:45.020Z,96.32
2016-12-26T04:15:11.135Z,96.61
2016-12-26T04:15:37.292Z,96.89
2016-12-26T04:16:03.397Z,96.51
2016-12-26T04:16:29.503Z,96.32
2016-12-26T04:16:55.622Z,96.51
2016-12-26T04:17:21.740Z,96.61
2016-12-26T04:17:47.861Z,96.7
2016-12-26T04:18:13.967Z,96.51
2016-12-26T04:18:40.082Z,96.8
2016-12-26T04:19:06.210Z,96.98
2016-12-26T04:19:32.318Z,96.32
2016-12-26T04:19:58.424Z,96.61
2016-12-26T04:20:24.560Z,96.89
2016-12-26T04:20:50.662Z,96.8
2016-12-26T04:21:16.765Z,96.61
2016-12-26T04:21:42.890Z,96.89
2016-12-26T04:22:09.025Z,96.89
2016-12-26T04:22:35.113Z,96.8
2016-12-26T04:23:01.237Z,96.7
2016-12-26T04:23:27.354Z,96.89
2016-12-26T04:23:53.456Z,96.8
2016-12-26T04:24:19.603Z,96.89
2016-12-26T04:24:45.751Z,96.8
2016-12-26T04:25:11.852Z,96.41
2016-12-26T04:25:37.965Z,96.98
2016-12-26T04:26:04.086Z,96.7
2016-12-26T04:26:30.193Z,96.98
2016-12-26T04:26:56.299Z,96.98
2016-12-26T04:27:22.431Z,96.89
2016-12-26T04:27:48.547Z,97.27
2016-12-26T04:28:14.660Z,97.17
2016-12-26T04:28:40.769Z,97.27
2016-12-26T04:29:06.883Z,97.56
2016-12-26T04:29:33.003Z,97.46
2016-12-26T04:29:59.116Z,97.17
2016-12-26T04:30:25.225Z,97.27
2016-12-26T04:30:51.353Z,97.08
2016-12-26T04:31:17.463Z,97.17
2016-12-26T04:31:43.575Z,97.08
2016-12-26T04:32:09.698Z,97.46
2016-12-26T04:32:35.819Z,97.46
2016-12-26T04:33:01.922Z,97.17
2016-12-26T04:33:28.041Z,97.37
2016-12-26T04:33:54.153Z,97.37
2016-12-26T04:34:20.276Z,97.46
2016-12-26T04:34:46.390Z,96.98
2016-12-26T04:35:12.490Z,97.27
2016-12-26T04:35:38.613Z,96.98
2016-12-26T04:36:04.732Z,97.27
2016-12-26T04:36:30.842Z,97.08
2016-12-26T04:36:56.957Z,97.46
2016-12-26T04:37:23.079Z,97.46
2016-12-26T04:37:49.182Z,97.89
2016-12-26T04:38:15.300Z,97.8
2016-12-26T04:38:41.427Z,97.7
2016-12-26T04:39:07.529Z,97.8
2016-12-26T04:39:33.649Z,97.99
2016-12-26T04:39:59.759Z,98.13
2016-12-26T04:40:25.880Z,97.94
2016-12-26T04:40:51.997Z,97.46
2016-12-26T04:41:18.100Z,97.56
2016-12-26T04:41:44.221Z,97.08
2016-12-26T04:42:10.341Z,97.22
2016-12-26T04:42:36.448Z,97.32
2016-12-26T04:43:02.592Z,97.27
2016-12-26T04:43:28.717Z,97.99
2016-12-26T04:43:54.825Z,98.08
2016-12-26T04:44:20.926Z,97.89
2016-12-26T04:44:47.045Z,97.99
2016-12-26T04:45:13.171Z,97.7
2016-12-26T04:45:39.286Z,98.13
2016-12-26T04:46:05.394Z,97.56
2016-12-26T04:46:31.504Z,98.13
2016-12-26T04:46:57.633Z,97.27
2016-12-26T04:47:23.745Z,97.37
2016-12-26T04:47:49.852Z,97.46
2016-12-26T04:48:16.004Z,96.89
2016-12-26T04:48:42.112Z,96.89
2016-12-26T04:49:08.213Z,97.22
2016-12-26T04:49:34.335Z,97.41
2016-12-26T04:50:00.452Z,97.37
2016-12-26T04:50:26.568Z,97.46
2016-12-26T04:50:52.676Z,97.37
2016-12-26T04:51:18.786Z,97.46
2016-12-26T04:51:44.910Z,98.13
2016-12-26T04:52:11.026Z,98.03
2016-12-26T04:52:37.126Z,98.03
2016-12-26T04:53:03.249Z,97.46
2016-12-26T04:53:29.361Z,98.03
2016-12-26T04:53:55.468Z,98.03
2016-12-26T04:54:21.590Z,97.37
2016-12-26T04:54:47.709Z,98.03
2016-12-26T04:55:13.805Z,97.37
2016-12-26T04:55:39.920Z,97.27
2016-12-26T04:56:06.028Z,97.27
2016-12-26T04:56:32.149Z,97.22
2016-12-26T04:56:58.264Z,97.32
2016-12-26T04:57:24.369Z,97.99
2016-12-26T04:57:50.490Z,97.8
2016-12-26T04:58:16.618Z,98.08
2016-12-26T04:58:42.717Z,97.94
2016-12-26T04:59:08.829Z,98.36
2016-12-26T04:59:34.951Z,98.18
2016-12-26T05:00:01.052Z,98.75
2016-12-26T05:00:27.161Z,98.94
2016-12-26T05:00:53.287Z,99.04
2016-12-26T05:01:19.398Z,98.85
2016-12-26T05:01:45.515Z,98.94
2016-12-26T05:02:11.623Z,98.8
2016-12-26T05:02:37.734Z,98.56
2016-12-26T05:03:03.862Z,98.65
2016-12-26T05:03:29.963Z,98.61
2016-12-26T05:03:56.075Z,98.36
2016-12-26T05:04:22.202Z,98.51
2016-12-26T05:04:48.315Z,98.46
2016-12-26T05:05:14.424Z,98.32
2016-12-26T05:05:40.549Z,98.85
2016-12-26T05:06:06.661Z,98.9
2016-12-26T05:06:32.764Z,98.65
2016-12-26T05:06:58.886Z,98.65
2016-12-26T05:07:25.005Z,98.56
2016-12-26T05:07:51.108Z,98.8
2016-12-26T05:08:17.231Z,98.85
2016-12-26T05:08:43.353Z,98.75
2016-12-26T05:09:09.455Z,98.9
2016-12-26T05:09:35.568Z,98.08
2016-12-26T05:10:01.695Z,98.65
2016-12-26T05:10:27.797Z,98.8
2016-12-26T05:10:53.914Z,98.7
2016-12-26T05:11:20.035Z,98.08
2016-12-26T05:11:46.145Z,98.56
2016-12-26T05:12:12.254Z,98.85
2016-12-26T05:12:38.411Z,98.75
2016-12-26T05:13:04.530Z,98.94
2016-12-26T05:13:30.647Z,98.94
2016-12-26T05:13:56.757Z,98.85
2016-12-26T05:14:22.868Z,99.13
2016-12-26T05:14:48.993Z,98.46
2016-12-26T05:15:15.102Z,98.75
2016-12-26T05:15:41.211Z,98.27
2016-12-26T05:16:07.334Z,98.85
2016-12-26T05:16:33.447Z,98.75
2016-12-26T05:16:59.554Z,98.27
2016-12-26T05:17:25.676Z,98.65
2016-12-26T05:17:51.789Z,98.65
2016-12-26T05:18:17.902Z,98.08
2016-12-26T05:18:44.011Z,98.75
2016-12-26T05:19:10.123Z,98.85
2016-12-26T05:19:36.248Z,98.46
2016-12-26T05:20:02.359Z,98.65
2016-12-26T05:20:28.463Z,98.56
2016-12-26T05:20:54.588Z,98.27
2016-12-26T05:21:20.709Z,98.27
2016-12-26T05:21:46.816Z,98.56
2016-12-26T05:22:12.943Z,97.8
2016-12-26T05:22:39.066Z,98.18
2016-12-26T05:23:05.165Z,98.08
2016-12-26T05:23:31.281Z,98.27
2016-12-26T05:23:57.396Z,97.8
2016-12-26T05:24:23.517Z,98.18
2016-12-26T05:24:49.631Z,98.18
2016-12-26T05:25:15.736Z,98.27
2016-12-26T05:25:41.859Z,98.08
2016-12-26T05:26:07.982Z,98.18
2016-12-26T05:26:34.082Z,98.56
2016-12-26T05:27:00.201Z,98.75
2016-12-26T05:27:26.324Z,98.46
2016-12-26T05:27:52.433Z,97.8
2016-12-26T05:28:18.543Z,98.75
2016-12-26T05:28:44.664Z,98.46
2016-12-26T05:29:10.768Z,98.75
2016-12-26T05:29:36.894Z,98.13
2016-12-26T05:30:02.996Z,97.94
2016-12-26T05:30:29.110Z,97.7
2016-12-26T05:30:55.236Z,97.7
2016-12-26T05:31:21.340Z,97.66
2016-12-26T05:31:47.455Z,97.7
2016-12-26T05:32:13.578Z,97.85
2016-12-26T05:32:39.687Z,97.8
2016-12-26T05:33:05.789Z,97.66
2016-12-26T05:33:31.919Z,97.7
2016-12-26T05:33:58.024Z,97.7
2016-12-26T05:34:24.135Z,97.51
2016-12-26T05:34:50.255Z,97.89
2016-12-26T05:35:16.368Z,97.7
2016-12-26T05:35:42.492Z,97.75
2016-12-26T05:36:08.599Z,97.94
2016-12-26T05:36:34.702Z,98.03
2016-12-26T05:37:00.830Z,97.85
2016-12-26T05:37:26.938Z,98.03
2016-12-26T05:37:53.045Z,98.03